Time;durP1;ratioP1;P1;durP2;ratioP2;P2;SDS_P1;SDS_P2;PMS_P1;PMS_P2;Temp;Humidity;BMP_temperature;BMP_pressure;BME280_temperature;BME280_humidity;BME280_pressure;Samples;Min_cycle;Max_cycle;Signal;HPM_P1;HPM_P2
2023/06/15 00:00:48;;;;;;;5.25;4.15;;;15.10;99.90;;;;;;5015419;28;20718;-66
2023/06/15 00:03:14;;;;;;;9.00;4.50;;;15.00;99.90;;;;;;5015859;28;20176;-66
2023/06/15 00:05:40;;;;;;;5.18;4.38;;;15.00;99.90;;;;;;5015704;28;20587;-68
2023/06/15 00:08:06;;;;;;;6.72;4.43;;;14.90;99.90;;;;;;5015495;28;20235;-67
2023/06/15 00:10:31;;;;;;;5.30;4.30;;;14.80;99.90;;;;;;5015559;28;20227;-67
2023/06/15 00:12:57;;;;;;;5.45;4.43;;;14.70;99.90;;;;;;5015535;28;20172;-69
2023/06/15 00:15:23;;;;;;;4.40;4.00;;;14.70;99.90;;;;;;5014324;28;20182;-69
2023/06/15 00:17:49;;;;;;;6.70;4.00;;;14.70;99.90;;;;;;5014010;28;20195;-69
2023/06/15 00:20:15;;;;;;;6.72;4.47;;;14.80;99.90;;;;;;5014073;28;20196;-69
2023/06/15 00:22:45;;;;;;;6.75;4.03;;;14.80;99.90;;;;;;5015910;28;20183;-69
2023/06/15 00:25:11;;;;;;;6.10;4.20;;;14.80;99.90;;;;;;5014142;28;20180;-69
2023/06/15 00:27:37;;;;;;;6.47;3.67;;;14.80;99.90;;;;;;5015182;28;20282;-69
2023/06/15 00:30:04;;;;;;;5.82;4.07;;;14.70;99.90;;;;;;5015237;28;20164;-69
2023/06/15 00:32:29;;;;;;;4.50;3.90;;;14.50;99.90;;;;;;5015329;28;20164;-69
2023/06/15 00:34:55;;;;;;;4.60;3.95;;;14.40;99.90;;;;;;5015044;28;20187;-69
2023/06/15 00:37:21;;;;;;;5.60;4.03;;;14.30;99.90;;;;;;5015126;28;20238;-69
2023/06/15 00:39:47;;;;;;;8.23;4.20;;;14.40;99.90;;;;;;5013818;28;20226;-70
2023/06/15 00:42:12;;;;;;;6.07;4.25;;;14.50;99.90;;;;;;5015003;28;20625;-69
2023/06/15 00:44:38;;;;;;;5.90;4.15;;;14.40;99.90;;;;;;5014987;28;20260;-69
2023/06/15 00:47:05;;;;;;;6.53;4.25;;;14.40;99.90;;;;;;5012725;28;20326;-69
2023/06/15 00:49:32;;;;;;;5.97;4.50;;;14.40;99.90;;;;;;5013609;28;20175;-69
2023/06/15 00:52:00;;;;;;;4.82;4.00;;;14.40;99.90;;;;;;5013611;28;20228;-70
2023/06/15 00:54:26;;;;;;;5.78;4.25;;;14.40;99.90;;;;;;5015330;28;20172;-69
2023/06/15 00:56:53;;;;;;;4.90;4.10;;;14.40;99.90;;;;;;5014963;28;20648;-69
2023/06/15 00:59:19;;;;;;;4.85;4.18;;;14.20;99.90;;;;;;5015447;28;20191;-66
2023/06/15 01:01:47;;;;;;;5.30;4.20;;;14.00;99.90;;;;;;5013540;28;20306;-66
2023/06/15 01:04:14;;;;;;;4.45;4.03;;;13.80;99.90;;;;;;5014602;28;20210;-67
2023/06/15 01:06:51;;;;;;;5.50;4.28;;;13.70;99.90;;;;;;5013205;28;20203;-67
2023/06/15 01:09:21;;;;;;;6.35;4.68;;;13.70;99.90;;;;;;5015176;28;20168;-66
2023/06/15 01:11:52;;;;;;;8.77;4.28;;;13.80;99.90;;;;;;5013109;28;20191;-66
2023/06/15 01:14:20;;;;;;;7.18;4.53;;;13.80;99.90;;;;;;5014865;28;20152;-66
2023/06/15 01:16:52;;;;;;;7.68;4.63;;;13.80;99.90;;;;;;5014558;28;20251;-66
2023/06/15 01:19:57;;;;;;;7.40;4.78;;;13.80;99.90;;;;;;5014259;28;20156;-66
2023/06/15 01:23:21;;;;;;;8.43;4.40;;;13.80;99.90;;;;;;5014271;28;20166;-66
2023/06/15 01:25:49;;;;;;;6.60;4.80;;;13.80;99.90;;;;;;4918803;29;20186;-66
2023/06/15 01:28:20;;;;;;;6.70;4.65;;;13.80;99.90;;;;;;4918822;29;20411;-66
2023/06/15 01:30:51;;;;;;;9.05;4.95;;;13.80;99.90;;;;;;4966513;28;20217;-66
2023/06/15 01:33:17;;;;;;;8.95;5.13;;;13.80;99.90;;;;;;5012699;28;20547;-66
2023/06/15 01:35:42;;;;;;;8.50;5.03;;;13.80;99.90;;;;;;5014113;28;20176;-67
2023/06/15 01:38:09;;;;;;;5.78;4.43;;;13.90;99.90;;;;;;5013933;28;20176;-66
2023/06/15 01:40:38;;;;;;;6.60;4.97;;;13.90;99.90;;;;;;5013899;28;20214;-66
2023/06/15 01:43:11;;;;;;;8.85;4.88;;;13.90;99.90;;;;;;5013951;28;20250;-66
2023/06/15 01:45:39;;;;;;;9.18;4.63;;;13.80;99.90;;;;;;5014246;28;20160;-66
2023/06/15 01:48:06;;;;;;;8.32;5.00;;;13.70;99.90;;;;;;5012436;28;20218;-67
2023/06/15 01:50:33;;;;;;;6.53;4.93;;;13.70;99.90;;;;;;5013853;28;20191;-66
2023/06/15 01:53:00;;;;;;;9.65;5.32;;;13.60;99.90;;;;;;5014388;28;20660;-66
2023/06/15 01:55:26;;;;;;;5.90;4.70;;;13.60;99.90;;;;;;5012609;28;20647;-66
2023/06/15 01:57:53;;;;;;;6.80;4.50;;;13.50;99.90;;;;;;5013929;28;20171;-66
2023/06/15 02:00:22;;;;;;;7.03;4.80;;;13.50;99.90;;;;;;5013711;28;20214;-66
2023/06/15 02:02:48;;;;;;;6.80;5.00;;;13.50;99.90;;;;;;5014207;28;20210;-66
2023/06/15 02:05:14;;;;;;;7.45;4.68;;;13.40;99.90;;;;;;5015530;28;20589;-67
2023/06/15 02:07:40;;;;;;;6.97;4.75;;;13.20;99.90;;;;;;5029933;28;20204;-68
2023/06/15 02:10:07;;;;;;;7.32;4.93;;;13.00;99.90;;;;;;5014288;28;20230;-68
2023/06/15 02:12:33;;;;;;;6.20;4.60;;;13.00;99.90;;;;;;5013602;28;20176;-68
2023/06/15 02:15:02;;;;;;;7.22;5.05;;;13.00;99.90;;;;;;5013114;28;20180;-68
2023/06/15 02:17:33;;;;;;;9.07;5.63;;;13.10;99.90;;;;;;5012685;28;20184;-68
2023/06/15 02:19:59;;;;;;;9.80;6.20;;;13.00;99.90;;;;;;5013770;28;20533;-68
2023/06/15 02:22:25;;;;;;;7.82;5.43;;;13.00;99.90;;;;;;5014019;28;20186;-68
2023/06/15 02:24:51;;;;;;;8.48;5.72;;;12.80;99.90;;;;;;5012403;28;20278;-68
2023/06/15 02:27:16;;;;;;;7.60;5.03;;;12.70;99.90;;;;;;5012516;28;20254;-68
2023/06/15 02:29:42;;;;;;;5.97;5.28;;;12.60;99.90;;;;;;5013723;28;20168;-68
2023/06/15 02:32:09;;;;;;;5.38;4.60;;;12.50;99.90;;;;;;5013861;28;20199;-68
2023/06/15 02:34:36;;;;;;;7.15;5.20;;;12.50;99.90;;;;;;5013386;28;20262;-68
2023/06/15 02:37:02;;;;;;;7.10;5.43;;;12.40;99.90;;;;;;5013505;28;20180;-68
2023/06/15 02:39:29;;;;;;;7.95;5.95;;;12.50;99.90;;;;;;5012161;28;20203;-68
2023/06/15 02:41:54;;;;;;;7.63;5.80;;;12.50;99.90;;;;;;5012287;28;20199;-68
2023/06/15 02:44:21;;;;;;;5.65;5.03;;;12.50;99.90;;;;;;5012022;28;20195;-68
2023/06/15 02:46:47;;;;;;;6.03;5.25;;;12.50;99.90;;;;;;5012052;28;20295;-68
2023/06/15 02:49:13;;;;;;;10.65;5.40;;;12.50;99.90;;;;;;5012228;28;20262;-68
2023/06/15 02:51:39;;;;;;;7.70;5.05;;;12.50;99.90;;;;;;5013220;28;20188;-67
2023/06/15 02:54:06;;;;;;;7.15;5.30;;;12.40;99.90;;;;;;5013345;28;20176;-68
2023/06/15 02:56:36;;;;;;;6.63;5.00;;;12.40;99.90;;;;;;5012145;28;20180;-68
2023/06/15 02:59:01;;;;;;;7.53;5.45;;;12.40;99.90;;;;;;5012179;28;20171;-68
2023/06/15 03:01:37;;;;;;;7.00;5.50;;;12.40;99.90;;;;;;5012204;28;20216;-68
2023/06/15 03:04:09;;;;;;;7.50;5.60;;;12.40;99.90;;;;;;5012476;28;20628;-68
2023/06/15 03:06:36;;;;;;;9.57;5.80;;;12.40;99.90;;;;;;5012904;28;20279;-68
2023/06/15 03:09:03;;;;;;;12.77;5.35;;;12.40;99.90;;;;;;5012398;28;20180;-68
2023/06/15 03:11:28;;;;;;;11.88;5.97;;;12.50;99.90;;;;;;5015739;28;20192;-68
2023/06/15 03:13:55;;;;;;;7.88;5.30;;;12.50;99.90;;;;;;5016834;28;20603;-68
2023/06/15 03:16:20;;;;;;;8.30;5.80;;;12.60;99.90;;;;;;5017382;28;20636;-68
2023/06/15 03:18:47;;;;;;;10.98;5.65;;;12.70;99.90;;;;;;5015207;28;20183;-68
2023/06/15 03:21:14;;;;;;;8.70;5.88;;;12.70;99.90;;;;;;5015252;28;20677;-68
2023/06/15 03:23:42;;;;;;;6.25;5.47;;;12.70;99.90;;;;;;5016607;28;20179;-68
2023/06/15 03:26:08;;;;;;;8.43;6.25;;;12.70;99.90;;;;;;5015242;28;20652;-68
2023/06/15 03:28:37;;;;;;;7.15;5.55;;;12.60;99.90;;;;;;5015193;28;20222;-68
2023/06/15 03:31:04;;;;;;;7.75;5.50;;;12.40;99.90;;;;;;5016604;28;20728;-68
2023/06/15 03:33:31;;;;;;;7.50;5.20;;;12.40;99.90;;;;;;5014902;28;20171;-68
2023/06/15 03:35:57;;;;;;;6.65;5.72;;;12.30;99.90;;;;;;5014816;28;20233;-68
2023/06/15 03:38:23;;;;;;;7.47;5.25;;;12.20;99.90;;;;;;5016295;28;20183;-67
2023/06/15 03:40:49;;;;;;;7.38;5.97;;;12.10;99.90;;;;;;5016142;28;20195;-67
2023/06/15 03:43:15;;;;;;;8.23;5.85;;;12.20;99.90;;;;;;5015156;28;20667;-68
2023/06/15 03:45:41;;;;;;;10.63;6.45;;;12.30;99.90;;;;;;5014656;28;20274;-68
2023/06/15 03:48:07;;;;;;;10.15;6.13;;;12.30;99.90;;;;;;5016005;28;20293;-68
2023/06/15 03:50:33;;;;;;;9.70;6.20;;;12.30;99.90;;;;;;5014514;28;20341;-68
2023/06/15 03:53:00;;;;;;;9.23;5.43;;;12.40;99.90;;;;;;5015996;28;20547;-68
2023/06/15 03:55:26;;;;;;;8.82;5.57;;;12.30;99.90;;;;;;5016074;28;20171;-68
2023/06/15 03:57:52;;;;;;;8.50;5.50;;;12.20;99.90;;;;;;5016331;28;20187;-68
2023/06/15 04:00:18;;;;;;;7.43;6.20;;;12.20;99.90;;;;;;5015898;28;20207;-69
2023/06/15 04:02:44;;;;;;;9.65;6.00;;;12.10;99.90;;;;;;5015840;28;20180;-68
2023/06/15 04:05:10;;;;;;;7.93;6.07;;;12.00;99.90;;;;;;5014426;28;20194;-67
2023/06/15 04:07:36;;;;;;;7.40;5.93;;;12.00;99.90;;;;;;5014223;28;20208;-67
2023/06/15 04:10:04;;;;;;;8.20;6.28;;;12.00;99.90;;;;;;5015807;28;20179;-67
2023/06/15 04:12:30;;;;;;;9.50;6.82;;;12.00;99.90;;;;;;5015488;28;20648;-67
2023/06/15 04:14:55;;;;;;;9.88;6.47;;;12.00;99.90;;;;;;5014272;28;20259;-66
2023/06/15 04:17:24;;;;;;;9.98;6.28;;;12.00;99.90;;;;;;5015369;28;20187;-66
2023/06/15 04:19:50;;;;;;;8.65;6.07;;;12.10;99.90;;;;;;5015232;28;20176;-66
2023/06/15 04:22:16;;;;;;;7.93;6.10;;;12.10;99.90;;;;;;5012775;28;20678;-66
2023/06/15 04:24:42;;;;;;;7.28;6.00;;;12.10;99.90;;;;;;5016022;28;20206;-66
2023/06/15 04:27:12;;;;;;;9.13;5.72;;;12.20;99.90;;;;;;5015119;28;20202;-67
2023/06/15 04:29:45;;;;;;;8.70;6.75;;;12.20;99.90;;;;;;5013883;28;20178;-66
2023/06/15 04:32:12;;;;;;;8.80;6.72;;;12.20;99.90;;;;;;5016696;28;20196;-66
2023/06/15 04:34:39;;;;;;;8.23;6.50;;;12.30;99.90;;;;;;5015529;28;20721;-69
2023/06/15 04:37:07;;;;;;;6.20;5.60;;;12.30;99.90;;;;;;5014477;28;20190;-68
2023/06/15 04:39:34;;;;;;;8.73;6.85;;;12.40;99.90;;;;;;5015356;28;20178;-69
2023/06/15 04:42:00;;;;;;;8.65;7.10;;;12.50;99.90;;;;;;5015434;28;20230;-66
2023/06/15 04:44:27;;;;;;;9.90;7.65;;;12.70;99.90;;;;;;5015632;28;20156;-67
2023/06/15 04:46:52;;;;;;;10.45;6.75;;;12.70;99.90;;;;;;5013671;28;20229;-67
2023/06/15 04:49:19;;;;;;;9.02;6.80;;;12.80;99.90;;;;;;5013654;28;20336;-66
2023/06/15 04:51:45;;;;;;;10.00;7.32;;;12.90;99.90;;;;;;5015198;28;20290;-66
2023/06/15 04:54:11;;;;;;;9.70;6.95;;;12.90;99.90;;;;;;5015320;28;20660;-67
2023/06/15 04:56:36;;;;;;;10.35;7.05;;;13.00;99.90;;;;;;5015053;28;20172;-66
2023/06/15 04:59:02;;;;;;;11.65;7.13;;;13.00;99.90;;;;;;5014472;28;20172;-67
2023/06/15 05:01:28;;;;;;;9.80;7.28;;;13.00;99.90;;;;;;5014539;28;20280;-66
2023/06/15 05:03:54;;;;;;;9.98;7.30;;;13.10;99.90;;;;;;5013151;28;20176;-66
2023/06/15 05:06:20;;;;;;;11.52;7.45;;;13.10;99.90;;;;;;5014439;28;20238;-66
2023/06/15 05:08:46;;;;;;;11.95;8.15;;;13.10;99.90;;;;;;5014433;28;20200;-66
2023/06/15 05:11:12;;;;;;;10.43;7.95;;;13.20;99.90;;;;;;5014314;28;20263;-66
2023/06/15 05:13:38;;;;;;;10.07;7.75;;;13.30;99.90;;;;;;5013381;28;20202;-71
2023/06/15 05:16:04;;;;;;;10.75;7.93;;;13.30;99.90;;;;;;5013802;28;20249;-68
2023/06/15 05:18:30;;;;;;;9.75;7.88;;;13.40;99.90;;;;;;5014993;28;20187;-68
2023/06/15 05:20:56;;;;;;;9.90;7.63;;;13.50;99.90;;;;;;5014635;28;20242;-68
2023/06/15 05:23:22;;;;;;;10.50;7.32;;;13.50;99.90;;;;;;5013057;28;20202;-68
2023/06/15 05:25:48;;;;;;;9.57;7.78;;;13.60;99.90;;;;;;5014624;28;20592;-68
2023/06/15 05:28:14;;;;;;;10.27;8.00;;;13.70;99.90;;;;;;5014297;28;20211;-67
2023/06/15 05:30:40;;;;;;;9.38;7.68;;;13.80;99.90;;;;;;5014614;28;20719;-67
2023/06/15 05:33:06;;;;;;;8.40;7.28;;;13.90;99.90;;;;;;5014031;28;20204;-67
2023/06/15 05:35:31;;;;;;;10.25;7.45;;;14.00;99.90;;;;;;5014990;28;20187;-68
2023/06/15 05:37:57;;;;;;;11.13;7.55;;;14.10;99.90;;;;;;5013241;28;20199;-67
2023/06/15 05:40:23;;;;;;;10.60;7.60;;;14.30;99.90;;;;;;5012967;28;20196;-68
2023/06/15 05:42:49;;;;;;;10.98;7.80;;;14.30;99.90;;;;;;5014589;28;20175;-67
2023/06/15 05:45:16;;;;;;;9.98;7.03;;;14.40;99.90;;;;;;5014557;28;20172;-66
2023/06/15 05:47:41;;;;;;;10.43;7.55;;;14.50;99.90;;;;;;5013783;28;20196;-67
2023/06/15 05:50:07;;;;;;;10.88;7.45;;;14.50;99.90;;;;;;5013790;28;20235;-68
2023/06/15 05:52:33;;;;;;;11.65;7.15;;;14.60;99.90;;;;;;5012480;28;20176;-67
2023/06/15 05:54:59;;;;;;;12.73;8.30;;;14.70;99.90;;;;;;5013856;28;20194;-67
2023/06/15 05:57:24;;;;;;;10.80;8.13;;;14.80;99.90;;;;;;5014042;28;20226;-67
2023/06/15 05:59:50;;;;;;;10.20;7.20;;;14.80;99.90;;;;;;5013502;28;20172;-67
2023/06/15 06:02:16;;;;;;;12.50;7.85;;;14.90;99.90;;;;;;5013650;28;20225;-68
2023/06/15 06:04:42;;;;;;;10.52;7.88;;;15.00;99.90;;;;;;5013593;28;20211;-68
2023/06/15 06:07:07;;;;;;;9.02;6.45;;;15.10;99.90;;;;;;5013769;28;20253;-68
2023/06/15 06:09:34;;;;;;;11.60;7.97;;;15.10;99.90;;;;;;5013629;28;20267;-68
2023/06/15 06:12:01;;;;;;;13.95;8.70;;;15.20;99.90;;;;;;5013639;28;20184;-68
2023/06/15 06:14:27;;;;;;;12.27;7.75;;;15.30;99.90;;;;;;5013629;28;20640;-68
2023/06/15 06:16:54;;;;;;;19.15;8.15;;;15.50;99.90;;;;;;5013827;28;20186;-71
2023/06/15 06:19:21;;;;;;;13.07;7.55;;;15.60;99.90;;;;;;5014060;28;20216;-70
2023/06/15 06:21:46;;;;;;;9.20;7.05;;;15.60;99.90;;;;;;5012845;28;20207;-68
2023/06/15 06:24:12;;;;;;;13.07;7.28;;;15.70;99.90;;;;;;5013874;28;20164;-68
2023/06/15 06:26:40;;;;;;;9.93;6.35;;;15.80;99.90;;;;;;5013453;28;20187;-68
2023/06/15 06:29:08;;;;;;;11.43;6.65;;;15.90;99.90;;;;;;5013895;28;20176;-70
2023/06/15 06:31:34;;;;;;;9.65;6.35;;;16.00;99.90;;;;;;5012189;28;20196;-70
2023/06/15 06:34:00;;;;;;;12.48;6.22;;;16.20;99.90;;;;;;5013828;28;20187;-67
2023/06/15 06:36:26;;;;;;;8.40;6.18;;;16.30;99.90;;;;;;5013437;28;20176;-70
2023/06/15 06:38:53;;;;;;;10.88;6.97;;;16.40;99.90;;;;;;5014422;28;20183;-68
2023/06/15 06:41:18;;;;;;;10.82;6.40;;;16.50;99.90;;;;;;5013175;28;20196;-66
2023/06/15 06:43:44;;;;;;;9.68;6.47;;;16.70;99.90;;;;;;5013284;28;20183;-66
2023/06/15 06:46:10;;;;;;;8.93;6.45;;;16.80;99.90;;;;;;5015263;28;20649;-72
2023/06/15 06:48:36;;;;;;;11.13;6.35;;;17.00;99.90;;;;;;5017206;28;20245;-72
2023/06/15 06:51:02;;;;;;;11.25;6.10;;;17.10;99.90;;;;;;5017303;28;20195;-72
2023/06/15 06:53:27;;;;;;;8.40;6.43;;;17.20;99.90;;;;;;5017219;28;20251;-72
2023/06/15 06:55:53;;;;;;;9.05;5.80;;;17.40;99.90;;;;;;5017130;28;20168;-72
2023/06/15 06:58:20;;;;;;;13.02;6.47;;;17.50;99.90;;;;;;5018159;28;20164;-70
2023/06/15 07:00:46;;;;;;;9.48;5.82;;;17.60;99.90;;;;;;5018357;28;20215;-74
2023/06/15 07:03:13;;;;;;;9.07;6.05;;;17.70;99.90;;;;;;5024901;28;20182;-71
2023/06/15 07:05:39;;;;;;;8.55;6.18;;;17.90;99.90;;;;;;5022375;28;20187;-73
2023/06/15 07:08:05;;;;;;;10.52;5.68;;;18.00;99.90;;;;;;5019039;28;20234;-72
2023/06/15 07:10:30;;;;;;;9.68;6.25;;;18.10;99.90;;;;;;5016311;28;20575;-73
2023/06/15 07:12:56;;;;;;;8.18;5.72;;;18.20;99.90;;;;;;5016868;28;20538;-71
2023/06/15 07:15:27;;;;;;;7.85;5.32;;;18.20;99.90;;;;;;5016628;28;20586;-70
2023/06/15 07:17:53;;;;;;;8.80;5.60;;;18.40;99.90;;;;;;5015233;28;20230;-71
2023/06/15 07:20:19;;;;;;;8.80;5.72;;;18.50;99.90;;;;;;5015244;28;20203;-71
2023/06/15 07:22:45;;;;;;;8.00;5.70;;;18.60;99.90;;;;;;5015414;28;20179;-71
2023/06/15 07:25:11;;;;;;;6.82;5.10;;;18.70;99.90;;;;;;5016570;28;20515;-72
2023/06/15 07:27:37;;;;;;;7.38;5.28;;;18.80;99.90;;;;;;5016787;28;20270;-71
2023/06/15 07:30:03;;;;;;;7.25;5.40;;;19.00;99.90;;;;;;5015326;28;20214;-72
2023/06/15 07:32:28;;;;;;;9.25;5.63;;;19.10;99.90;;;;;;5015317;28;20184;-71
2023/06/15 07:34:54;;;;;;;8.13;5.47;;;19.20;99.90;;;;;;5017106;28;20270;-72
2023/06/15 07:37:20;;;;;;;8.00;4.93;;;19.30;99.90;;;;;;5015081;28;20215;-71
2023/06/15 07:39:46;;;;;;;6.15;4.95;;;19.40;99.90;;;;;;5017655;28;20183;-68
2023/06/15 07:42:11;;;;;;;10.45;5.25;;;19.50;99.90;;;;;;5015254;28;20226;-69
2023/06/15 07:44:37;;;;;;;7.07;5.07;;;19.50;99.90;;;;;;5016358;28;20176;-68
2023/06/15 07:47:03;;;;;;;8.57;5.18;;;19.60;99.90;;;;;;5016513;28;20226;-69
2023/06/15 07:49:29;;;;;;;8.52;4.43;;;19.70;99.90;;;;;;5014835;28;20275;-68
2023/06/15 07:51:55;;;;;;;10.82;5.50;;;19.80;99.90;;;;;;5017495;28;20227;-69
2023/06/15 07:54:21;;;;;;;9.13;4.95;;;19.80;99.90;;;;;;5018113;28;20178;-69
2023/06/15 07:56:46;;;;;;;7.68;4.60;;;20.00;99.90;;;;;;5017418;28;20171;-68
2023/06/15 07:59:13;;;;;;;5.47;4.40;;;20.00;99.90;;;;;;5017317;28;20188;-69
2023/06/15 08:01:39;;;;;;;6.97;4.20;;;20.20;99.90;;;;;;5016824;28;20222;-68
2023/06/15 08:04:09;;;;;;;6.18;4.30;;;20.30;99.90;;;;;;5016725;28;20609;-68
2023/06/15 08:06:38;;;;;;;8.55;4.93;;;20.30;99.90;;;;;;4988956;28;20219;-66
2023/06/15 08:09:05;;;;;;;6.10;4.55;;;20.40;99.90;;;;;;4994930;28;20185;-65
2023/06/15 08:11:49;;;;;;;7.88;4.22;;;20.50;9.50;;;;;;4978567;28;20196;-65
2023/06/15 08:14:19;;;;;;;8.93;4.05;;;20.50;16.50;;;;;;4992940;28;20669;-65
2023/06/15 08:16:46;;;;;;;7.63;4.40;;;20.60;1.00;;;;;;4994387;28;20177;-65
2023/06/15 08:19:18;;;;;;;6.35;4.20;;;20.70;1.00;;;;;;4975895;28;20199;-65
2023/06/15 08:21:54;;;;;;;6.32;3.97;;;20.80;1.00;;;;;;4975387;28;20212;-65
2023/06/15 08:24:29;;;;;;;10.52;4.20;;;20.90;99.90;;;;;;4994878;28;20171;-65
2023/06/15 08:26:59;;;;;;;4.95;3.70;;;21.10;42.10;;;;;;4995461;28;20302;-65
2023/06/15 08:29:27;;;;;;;8.82;3.85;;;21.20;99.90;;;;;;4994348;28;20234;-65
2023/06/15 08:31:54;;;;;;;7.13;4.32;;;21.30;44.00;;;;;;5010558;28;20688;-66
2023/06/15 08:34:27;;;;;;;5.82;4.32;;;21.50;1.00;;;;;;4977944;28;20250;-65
2023/06/15 08:36:56;;;;;;;6.55;4.13;;;21.60;1.00;;;;;;4995406;28;20251;-66
2023/06/15 08:39:23;;;;;;;6.70;4.32;;;21.70;1.00;;;;;;5010650;28;20590;-66
2023/06/15 08:42:02;;;;;;;5.50;4.32;;;21.90;1.00;;;;;;4993525;28;20231;-66
2023/06/15 08:44:33;;;;;;;7.20;4.03;;;22.00;99.90;;;;;;4996002;28;20620;-71
2023/06/15 08:47:03;;;;;;;11.57;4.20;;;22.20;99.90;;;;;;4995611;28;20201;-70
2023/06/15 08:49:33;;;;;;;10.10;4.30;;;22.30;99.90;;;;;;4994194;28;20523;-68
2023/06/15 08:51:59;;;;;;;9.95;4.05;;;22.50;99.90;;;;;;4995549;28;20200;-68
2023/06/15 08:54:31;;;;;;;6.38;4.03;;;22.50;99.90;;;;;;4995611;28;20157;-68
2023/06/15 08:56:57;;;;;;;10.77;3.95;;;22.60;99.90;;;;;;4995048;28;20537;-69
2023/06/15 08:59:24;;;;;;;5.85;3.95;;;22.60;99.90;;;;;;4995252;28;20200;-70
2023/06/15 09:01:54;;;;;;;4.68;3.67;;;22.60;1.00;;;;;;4993808;28;20582;-70
2023/06/15 09:04:19;;;;;;;7.30;4.15;;;22.70;99.90;;;;;;4993936;28;20173;-69
2023/06/15 09:06:46;;;;;;;6.38;4.05;;;22.80;99.90;;;;;;5002090;28;20327;-68
2023/06/15 09:09:15;;;;;;;7.95;3.63;;;23.00;26.40;;;;;;4992886;28;20172;-69
2023/06/15 09:11:46;;;;;;;10.23;4.05;;;23.20;1.00;;;;;;4995332;28;20193;-68
2023/06/15 09:14:12;;;;;;;7.55;4.18;;;23.30;1.00;;;;;;4995042;28;20156;-68
2023/06/15 09:16:39;;;;;;;6.85;4.18;;;23.50;1.00;;;;;;4994257;28;20644;-68
2023/06/15 09:19:11;;;;;;;9.68;4.15;;;23.60;1.00;;;;;;4994909;28;20724;-74
2023/06/15 09:21:52;;;;;;;5.65;3.60;;;23.70;1.00;;;;;;4994379;28;20703;-67
2023/06/15 09:24:22;;;;;;;11.63;4.40;;;23.70;1.00;;;;;;4993275;28;20219;-69
2023/06/15 09:26:48;;;;;;;6.90;4.38;;;23.80;1.00;;;;;;4994424;28;20161;-68
2023/06/15 09:29:13;;;;;;;9.27;4.30;;;23.90;1.00;;;;;;4993284;28;20251;-69
2023/06/15 09:31:40;;;;;;;8.85;4.43;;;24.10;1.00;;;;;;4994652;28;20251;-68
2023/06/15 09:34:07;;;;;;;5.28;3.92;;;24.10;1.00;;;;;;4994779;28;20156;-67
2023/06/15 09:36:44;;;;;;;5.45;3.80;;;24.20;1.00;;;;;;5010665;28;20270;-68
2023/06/15 09:39:12;;;;;;;10.73;3.90;;;24.30;1.00;;;;;;5014189;28;20156;-67
2023/06/15 09:42:00;;;;;;;8.27;4.20;;;24.60;1.00;;;;;;5012371;28;20698;-67
2023/06/15 09:44:28;;;;;;;6.63;3.70;;;24.60;1.00;;;;;;5013986;28;20182;-66
2023/06/15 09:46:59;;;;;;;5.85;3.95;;;24.70;1.00;;;;;;5013862;28;20202;-66
2023/06/15 09:49:26;;;;;;;7.38;3.80;;;24.80;1.00;;;;;;5013709;28;20195;-66
2023/06/15 09:51:54;;;;;;;6.63;3.72;;;25.00;1.00;;;;;;5012488;28;20195;-67
2023/06/15 09:54:28;;;;;;;6.35;3.63;;;25.20;1.00;;;;;;5013715;28;20175;-72
2023/06/15 09:56:55;;;;;;;5.80;4.05;;;25.40;1.00;;;;;;5012266;28;20663;-67
2023/06/15 09:59:21;;;;;;;7.03;3.70;;;25.40;1.00;;;;;;5013630;28;20184;-66
2023/06/15 10:01:49;;;;;;;7.22;4.13;;;25.30;1.00;;;;;;5013592;28;20585;-67
2023/06/15 10:04:20;;;;;;;6.13;3.90;;;25.40;1.00;;;;;;5013716;28;20172;-66
2023/06/15 10:06:50;;;;;;;5.72;3.78;;;25.30;1.00;;;;;;5012197;28;20659;-66
2023/06/15 10:09:24;;;;;;;6.72;3.67;;;25.00;1.00;;;;;;5013577;28;20298;-66
2023/06/15 10:11:52;;;;;;;5.95;3.70;;;24.90;1.00;;;;;;5014118;28;20210;-66
2023/06/15 10:15:12;;;;;;;6.32;3.97;;;24.60;1.00;;;;;;5012268;28;20176;-65
2023/06/15 10:17:40;;;;;;;9.05;3.97;;;24.30;1.00;;;;;;4934202;29;20182;-65
2023/06/15 10:20:16;;;;;;;8.10;4.18;;;24.00;1.00;;;;;;4935666;29;20245;-66
2023/06/15 10:22:56;;;;;;;4.50;3.83;;;24.20;1.00;;;;;;4990341;28;20214;-66
2023/06/15 10:25:24;;;;;;;5.72;3.63;;;24.40;1.00;;;;;;5017675;28;20241;-66
2023/06/15 10:27:50;;;;;;;5.93;4.03;;;24.80;1.00;;;;;;5016017;28;20361;-66
2023/06/15 10:30:32;;;;;;;7.13;4.10;;;25.20;1.00;;;;;;5017193;28;20179;-66
2023/06/15 10:33:34;;;;;;;8.55;3.72;;;25.50;1.00;;;;;;5017755;28;20160;-66
2023/06/15 10:36:30;;;;;;;7.13;3.50;;;25.70;1.00;;;;;;5013221;28;20659;-66
2023/06/15 10:39:12;;;;;;;7.13;3.60;;;26.00;1.00;;;;;;5000536;28;20660;-66
2023/06/15 10:41:38;;;;;;;7.18;3.83;;;26.20;1.00;;;;;;5015754;28;20671;-66
2023/06/15 10:44:07;;;;;;;7.80;4.00;;;26.20;1.00;;;;;;5017041;28;20176;-66
2023/06/15 10:46:35;;;;;;;10.15;4.05;;;26.30;1.00;;;;;;5017031;28;20178;-66
2023/06/15 10:49:09;;;;;;;6.88;3.50;;;26.00;1.00;;;;;;5016832;28;20176;-66
2023/06/15 10:51:38;;;;;;;8.02;4.03;;;26.10;1.00;;;;;;5017141;28;20188;-66
2023/06/15 10:54:05;;;;;;;7.13;4.25;;;26.30;1.00;;;;;;5017049;28;20637;-66
2023/06/15 10:56:31;;;;;;;5.80;4.03;;;26.00;1.00;;;;;;5015534;28;20186;-66
2023/06/15 10:58:59;;;;;;;4.53;3.60;;;25.40;1.00;;;;;;5015424;28;20176;-66
2023/06/15 11:01:31;;;;;;;5.95;3.53;;;25.10;1.00;;;;;;5016664;28;20289;-66
2023/06/15 11:03:58;;;;;;;5.70;3.20;;;24.80;1.00;;;;;;5015412;28;20632;-69
2023/06/15 11:06:36;;;;;;;6.13;3.47;;;24.60;1.00;;;;;;5016549;28;20187;-68
2023/06/15 11:09:13;;;;;;;4.82;3.75;;;24.30;1.00;;;;;;5017186;28;20164;-68
2023/06/15 11:11:42;;;;;;;6.75;3.67;;;24.00;1.00;;;;;;5015274;28;20195;-68
2023/06/15 11:14:20;;;;;;;4.53;3.40;;;23.90;1.00;;;;;;5016853;28;20172;-67
2023/06/15 11:17:00;;;;;;;7.32;3.72;;;24.00;1.00;;;;;;5015180;28;20178;-66
2023/06/15 11:19:26;;;;;;;6.88;3.80;;;24.40;1.00;;;;;;5015091;28;20254;-67
2023/06/15 11:22:27;;;;;;;10.18;4.38;;;24.90;1.00;;;;;;5016365;28;20621;-67
2023/06/15 11:24:57;;;;;;;7.55;4.15;;;25.30;1.00;;;;;;5002807;28;20192;-67
2023/06/15 11:27:23;;;;;;;11.38;3.80;;;25.60;1.00;;;;;;5016477;28;20188;-67
2023/06/15 11:29:55;;;;;;;7.15;4.20;;;25.80;1.00;;;;;;5016334;28;20190;-67
2023/06/15 11:32:27;;;;;;;9.32;4.20;;;25.70;1.00;;;;;;5015439;28;20261;-67
2023/06/15 11:35:00;;;;;;;9.00;4.45;;;25.70;1.00;;;;;;5014728;28;20239;-68
2023/06/15 11:37:27;;;;;;;6.15;3.78;;;25.70;1.00;;;;;;5016200;28;20686;-67
2023/06/15 11:39:52;;;;;;;7.28;4.03;;;25.70;1.00;;;;;;5016129;28;20168;-67
2023/06/15 11:42:20;;;;;;;9.07;4.05;;;25.60;1.00;;;;;;5015026;28;20727;-67
2023/06/15 11:44:49;;;;;;;6.70;4.22;;;25.60;1.00;;;;;;5016282;28;20168;-67
2023/06/15 11:47:16;;;;;;;5.75;3.78;;;25.50;1.00;;;;;;5016154;28;20266;-67
2023/06/15 11:49:44;;;;;;;7.20;4.13;;;25.50;1.00;;;;;;5014453;28;20270;-67
2023/06/15 11:52:10;;;;;;;7.07;4.22;;;25.40;1.00;;;;;;5014493;28;20200;-67
2023/06/15 11:54:36;;;;;;;9.85;4.28;;;25.20;1.00;;;;;;5015984;28;20516;-67
2023/06/15 11:57:02;;;;;;;6.18;4.13;;;25.10;1.00;;;;;;5014465;28;20290;-67
2023/06/15 11:59:28;;;;;;;7.95;3.88;;;24.90;1.00;;;;;;5016224;28;20604;-68
2023/06/15 12:02:00;;;;;;;6.28;3.88;;;24.80;1.00;;;;;;5015530;28;20207;-68
2023/06/15 12:04:31;;;;;;;8.30;4.00;;;24.70;1.00;;;;;;5014099;28;20267;-68
2023/06/15 12:07:00;;;;;;;5.05;3.75;;;24.60;1.00;;;;;;5015454;28;20216;-68
2023/06/15 12:09:26;;;;;;;5.60;4.13;;;24.50;1.00;;;;;;5014220;28;20526;-68
2023/06/15 12:11:52;;;;;;;6.68;3.95;;;24.50;1.00;;;;;;5014502;28;20198;-69
2023/06/15 12:14:21;;;;;;;5.35;3.80;;;24.40;1.00;;;;;;5015396;28;20202;-69
2023/06/15 12:16:51;;;;;;;5.10;4.05;;;24.70;1.00;;;;;;5015992;28;20163;-71
2023/06/15 12:19:20;;;;;;;4.70;3.67;;;25.00;1.00;;;;;;5014113;28;20168;-69
2023/06/15 12:21:47;;;;;;;9.52;3.97;;;25.30;1.00;;;;;;5013975;28;20223;-69
2023/06/15 12:24:17;;;;;;;6.88;4.28;;;25.70;1.00;;;;;;5014107;28;20183;-71
2023/06/15 12:26:51;;;;;;;4.55;3.88;;;26.10;1.00;;;;;;5014160;28;20179;-72
2023/06/15 12:29:19;;;;;;;8.32;3.83;;;26.50;1.00;;;;;;5015648;28;20217;-71
2023/06/15 12:31:49;;;;;;;6.40;3.88;;;26.70;1.00;;;;;;5014152;28;20223;-71
2023/06/15 12:34:14;;;;;;;7.63;4.07;;;27.10;1.00;;;;;;5013892;28;20593;-70
2023/06/15 12:36:40;;;;;;;7.72;3.78;;;27.20;1.00;;;;;;5015072;28;20210;-67
2023/06/15 12:39:13;;;;;;;8.82;4.50;;;27.70;1.00;;;;;;5015232;28;20180;-67
2023/06/15 12:41:41;;;;;;;5.90;4.13;;;27.90;1.00;;;;;;5013588;28;20250;-67
2023/06/15 12:44:08;;;;;;;7.70;3.70;;;28.00;1.00;;;;;;5013855;28;20635;-67
2023/06/15 12:46:38;;;;;;;8.20;3.95;;;27.80;1.00;;;;;;5014866;28;20153;-67
2023/06/15 12:49:04;;;;;;;7.18;3.90;;;27.60;1.00;;;;;;5014970;28;20539;-67
2023/06/15 12:51:30;;;;;;;9.23;4.30;;;27.30;1.00;;;;;;5013212;28;20664;-67
2023/06/15 12:53:57;;;;;;;6.38;4.10;;;27.40;1.00;;;;;;5014647;28;20175;-67